createdAt,value
2023-10-07T00:02:18.864Z,101644.72
2023-10-07T00:04:46.891Z,101643.31
2023-10-07T00:07:16.334Z,101640.06
2023-10-07T00:09:51.631Z,101639.66
2023-10-07T00:12:20.572Z,101641.66
2023-10-07T00:14:48.499Z,101631.78
2023-10-07T00:17:19.644Z,101627.94
2023-10-07T00:19:49.193Z,101628.25
2023-10-07T00:22:20.897Z,101621.66
2023-10-07T00:24:50.199Z,101630.47
2023-10-07T00:27:39.228Z,101628.25
2023-10-07T00:30:14.674Z,101621.06
2023-10-07T00:32:43.161Z,101620.50
2023-10-07T00:35:12.833Z,101614.03
2023-10-07T00:37:45.282Z,101621.78
2023-10-07T00:40:16.123Z,101616.34
2023-10-07T00:42:46.471Z,101614.13
2023-10-07T00:45:17.852Z,101617.38
2023-10-07T00:47:51.164Z,101613.63
2023-10-07T00:50:19.320Z,101613.69
2023-10-07T00:52:56.019Z,101610.72
2023-10-07T00:55:38.663Z,101606.00
2023-10-07T00:58:09.273Z,101607.69
2023-10-07T01:00:40.237Z,101608.47
2023-10-07T01:03:18.477Z,101611.25
2023-10-07T01:06:02.356Z,101601.09
2023-10-07T01:08:48.411Z,101602.16
2023-10-07T01:11:19.590Z,101601.09
2023-10-07T01:13:58.146Z,101591.91
2023-10-07T01:16:47.980Z,101585.81
2023-10-07T01:19:19.667Z,101589.78
2023-10-07T01:22:12.967Z,101584.59
2023-10-07T01:24:40.792Z,101590.72
2023-10-07T01:27:31.105Z,101584.06
2023-10-07T01:30:03.856Z,101582.19
2023-10-07T01:32:35.518Z,101580.00
2023-10-07T01:35:12.388Z,101583.00
2023-10-07T01:37:50.030Z,101582.72
2023-10-07T01:40:18.646Z,101576.13
2023-10-07T01:42:46.672Z,101569.84
2023-10-07T01:45:23.821Z,101562.88
2023-10-07T01:47:56.942Z,101575.25
2023-10-07T01:50:26.046Z,101573.31
2023-10-07T01:52:57.493Z,101575.31
2023-10-07T01:55:29.540Z,101572.00
2023-10-07T01:57:57.875Z,101578.06
2023-10-07T02:00:44.369Z,101573.25
2023-10-07T02:03:25.195Z,101575.59
2023-10-07T02:05:54.170Z,101568.81
2023-10-07T02:08:24.737Z,101572.25
2023-10-07T02:11:02.189Z,101562.97
2023-10-07T02:13:32.988Z,101563.28
2023-10-07T02:16:06.834Z,101566.34
2023-10-07T02:18:36.942Z,101560.19
2023-10-07T02:21:15.073Z,101557.81
2023-10-07T02:23:44.957Z,101553.34
2023-10-07T02:26:21.275Z,101551.41
2023-10-07T02:28:54.775Z,101546.22
2023-10-07T02:31:24.994Z,101542.19
2023-10-07T02:33:53.810Z,101543.28
2023-10-07T02:36:29.710Z,101537.84
2023-10-07T02:39:20.358Z,101548.94
2023-10-07T02:41:49.288Z,101547.34
2023-10-07T02:44:29.638Z,101534.16
2023-10-07T02:46:58.197Z,101535.28
2023-10-07T02:49:27.488Z,101531.16
2023-10-07T02:51:58.541Z,101530.38
2023-10-07T02:54:34.532Z,101533.72
2023-10-07T02:57:21.331Z,101530.16
2023-10-07T02:59:52.504Z,101536.72
2023-10-07T03:02:38.372Z,101535.91
2023-10-07T03:05:12.972Z,101530.38
2023-10-07T03:07:50.869Z,101544.22
2023-10-07T03:10:19.966Z,101529.34
2023-10-07T03:12:49.990Z,101533.22
2023-10-07T03:15:28.137Z,101525.28
2023-10-07T03:17:56.926Z,101518.72
2023-10-07T03:20:29.694Z,101533.94
2023-10-07T03:23:19.200Z,101531.69
2023-10-07T03:26:10.091Z,101528.38
2023-10-07T03:28:38.692Z,101527.22
2023-10-07T03:31:12.451Z,101528.91
2023-10-07T03:33:45.433Z,101523.72
2023-10-07T03:36:32.329Z,101524.84
2023-10-07T03:39:18.890Z,101521.84
2023-10-07T03:41:49.582Z,101525.25
2023-10-07T03:44:19.345Z,101521.34
2023-10-07T03:46:49.819Z,101517.94
2023-10-07T03:49:22.444Z,101528.34
2023-10-07T03:52:04.737Z,101520.44
2023-10-07T03:54:33.042Z,101518.53
2023-10-07T03:57:04.270Z,101516.31
2023-10-07T03:59:33.539Z,101522.34
2023-10-07T04:02:24.471Z,101511.06
2023-10-07T04:05:02.293Z,101512.78
2023-10-07T04:07:32.759Z,101505.63
2023-10-07T04:10:14.262Z,101518.00
2023-10-07T04:12:42.172Z,101521.81
2023-10-07T04:15:14.542Z,101519.72
2023-10-07T04:17:44.742Z,101520.66
2023-10-07T04:20:19.955Z,101523.72
2023-10-07T04:23:02.352Z,101518.84
2023-10-07T04:25:41.212Z,101517.78
2023-10-07T04:28:09.345Z,101524.78
2023-10-07T04:30:48.952Z,101528.38
2023-10-07T04:33:27.095Z,101516.53
2023-10-07T04:36:01.704Z,101525.63
2023-10-07T04:38:40.612Z,101518.72
2023-10-07T04:41:37.944Z,101525.03
2023-10-07T04:44:44.228Z,101520.88
2023-10-07T04:47:36.326Z,101520.59
2023-10-07T04:50:17.055Z,101514.72
2023-10-07T04:52:52.104Z,101519.94
2023-10-07T04:55:27.727Z,101521.66
2023-10-07T04:57:55.740Z,101509.81
2023-10-07T05:00:33.338Z,101511.25
2023-10-07T05:03:04.347Z,101515.13
2023-10-07T05:05:34.795Z,101520.59
2023-10-07T05:08:19.422Z,101524.84
2023-10-07T05:10:54.726Z,101521.63
2023-10-07T05:13:22.976Z,101518.66
2023-10-07T05:15:51.142Z,101511.00
2023-10-07T05:18:19.109Z,101522.28
2023-10-07T05:20:50.071Z,101514.00
2023-10-07T05:23:18.994Z,101520.38
2023-10-07T05:25:50.707Z,101527.28
2023-10-07T05:28:23.074Z,101521.22
2023-10-07T05:30:52.794Z,101523.41
2023-10-07T05:33:26.175Z,101529.78
2023-10-07T05:36:15.255Z,101534.72
2023-10-07T05:38:54.498Z,101541.88
2023-10-07T05:41:26.560Z,101542.06
2023-10-07T05:43:54.567Z,101549.44
2023-10-07T05:46:22.555Z,101560.81
2023-10-07T05:48:52.661Z,101553.44
2023-10-07T05:51:20.549Z,101552.31
2023-10-07T05:53:53.002Z,101552.31
2023-10-07T05:56:21.230Z,101558.53
2023-10-07T05:58:49.938Z,101553.81
2023-10-07T06:01:20.145Z,101559.09
2023-10-07T06:03:56.810Z,101554.78
2023-10-07T06:06:25.786Z,101557.84
2023-10-07T06:09:04.901Z,101563.25
2023-10-07T06:11:34.106Z,101558.19
2023-10-07T06:14:06.021Z,101574.44
2023-10-07T06:16:34.944Z,101569.06
2023-10-07T06:19:04.268Z,101570.53
2023-10-07T06:21:33.466Z,101578.13
2023-10-07T06:24:08.871Z,101564.88
2023-10-07T06:26:38.273Z,101568.91
2023-10-07T06:29:20.368Z,101577.56
2023-10-07T06:32:19.350Z,101584.16
2023-10-07T06:34:47.950Z,101588.69
2023-10-07T06:37:16.484Z,101585.75
2023-10-07T06:39:44.865Z,101591.09
2023-10-07T06:42:13.193Z,101597.56
2023-10-07T06:44:44.794Z,101598.81
2023-10-07T06:47:13.916Z,101602.47
2023-10-07T06:49:42.231Z,101598.59
2023-10-07T06:52:14.129Z,101604.25
2023-10-07T06:54:51.968Z,101605.47
2023-10-07T06:57:30.960Z,101618.91
2023-10-07T06:59:59.563Z,101620.25
2023-10-07T07:02:36.377Z,101610.59
2023-10-07T07:05:13.140Z,101613.25
2023-10-07T07:07:43.316Z,101614.91
2023-10-07T07:10:18.035Z,101623.22
2023-10-07T07:12:46.633Z,101629.50
2023-10-07T07:15:28.177Z,101631.63
2023-10-07T07:18:15.394Z,101636.47
2023-10-07T07:21:11.352Z,101641.78
2023-10-07T07:23:44.751Z,101644.53
2023-10-07T07:26:14.266Z,101644.75
2023-10-07T07:28:45.550Z,101649.19
2023-10-07T07:31:21.281Z,101653.88
2023-10-07T07:33:49.958Z,101653.16
2023-10-07T07:36:43.422Z,101652.72
2023-10-07T07:39:19.269Z,101654.78
2023-10-07T07:41:57.527Z,101650.25
2023-10-07T07:44:35.341Z,101655.41
2023-10-07T07:47:05.000Z,101659.31
2023-10-07T07:49:34.750Z,101654.28
2023-10-07T07:52:04.357Z,101659.13
2023-10-07T07:54:33.111Z,101669.41
2023-10-07T07:57:06.102Z,101676.47
2023-10-07T07:59:34.844Z,101666.19
2023-10-07T08:02:14.400Z,101675.50
2023-10-07T08:04:47.622Z,101674.22
2023-10-07T08:07:26.135Z,101670.59
2023-10-07T08:09:59.408Z,101670.25
2023-10-07T08:12:32.893Z,101676.94
2023-10-07T08:15:16.413Z,101671.94
2023-10-07T08:17:48.202Z,101665.41
2023-10-07T08:20:23.796Z,101661.47
2023-10-07T08:22:53.643Z,101663.16
2023-10-07T08:26:01.601Z,101664.31
2023-10-07T08:28:48.758Z,101673.19
2023-10-07T08:31:20.164Z,101665.53
2023-10-07T08:33:55.643Z,101658.13
2023-10-07T08:36:30.826Z,101661.38
2023-10-07T08:39:06.377Z,101661.59
2023-10-07T08:41:35.063Z,101651.47
2023-10-07T08:44:17.132Z,101662.63
2023-10-07T08:46:54.250Z,101660.50
2023-10-07T08:49:27.262Z,101653.31
2023-10-07T08:51:57.052Z,101653.19
2023-10-07T08:54:33.518Z,101656.97
2023-10-07T08:57:10.603Z,101653.72
2023-10-07T08:59:39.502Z,101652.75
2023-10-07T09:02:18.661Z,101655.88
2023-10-07T09:04:47.393Z,101647.53
2023-10-07T09:07:19.692Z,101644.44
2023-10-07T09:09:50.380Z,101644.28
2023-10-07T09:12:41.027Z,101645.06
2023-10-07T09:15:16.116Z,101647.84
2023-10-07T09:17:47.116Z,101636.22
2023-10-07T09:20:19.479Z,101641.13
2023-10-07T09:22:55.274Z,101631.16
2023-10-07T09:25:32.830Z,101640.34
2023-10-07T09:28:03.406Z,101634.75
2023-10-07T09:30:46.820Z,101638.31
2023-10-07T09:33:20.806Z,101642.44
2023-10-07T09:36:22.480Z,101643.59
2023-10-07T09:39:06.959Z,101637.53
2023-10-07T09:41:35.947Z,101638.63
2023-10-07T09:44:11.362Z,101634.03
2023-10-07T09:46:43.074Z,101633.84
2023-10-07T09:49:16.146Z,101631.84
2023-10-07T09:51:52.429Z,101632.00
2023-10-07T09:55:20.382Z,101625.38
2023-10-07T09:58:05.612Z,101624.66
2023-10-07T10:01:08.294Z,101618.56
2023-10-07T10:04:07.550Z,101615.19
2023-10-07T10:07:11.966Z,101622.94
2023-10-07T10:09:59.310Z,101613.28
2023-10-07T10:12:50.416Z,101612.75
2023-10-07T10:15:21.927Z,101617.22
2023-10-07T10:17:57.245Z,101616.56
2023-10-07T10:20:44.500Z,101616.84
2023-10-07T10:23:21.418Z,101615.38
2023-10-07T10:25:54.747Z,101606.19
2023-10-07T10:28:29.468Z,101601.97
2023-10-07T10:30:58.059Z,101595.00
2023-10-07T10:33:30.107Z,101591.66
2023-10-07T10:36:03.008Z,101583.53
2023-10-07T10:38:42.460Z,101597.41
2023-10-07T10:41:12.396Z,101585.06
2023-10-07T10:43:41.305Z,101587.31
2023-10-07T10:46:09.907Z,101586.75
2023-10-07T10:48:40.545Z,101576.97
2023-10-07T10:51:09.748Z,101582.34
2023-10-07T10:53:42.721Z,101567.53
2023-10-07T10:56:12.476Z,101576.75
2023-10-07T10:58:41.121Z,101569.75
2023-10-07T11:01:09.643Z,101571.72
2023-10-07T11:03:38.934Z,101578.03
2023-10-07T11:06:08.018Z,101574.03
2023-10-07T11:08:39.082Z,101569.50
2023-10-07T11:11:15.905Z,101562.25
2023-10-07T11:13:46.052Z,101568.50
2023-10-07T11:16:18.201Z,101545.44
2023-10-07T11:18:48.913Z,101556.50
2023-10-07T11:21:23.074Z,101542.75
2023-10-07T11:23:59.740Z,101543.53
2023-10-07T11:26:34.238Z,101545.09
2023-10-07T11:29:16.279Z,101552.97
2023-10-07T11:31:48.257Z,101539.44
2023-10-07T11:34:21.387Z,101540.34
2023-10-07T11:36:52.325Z,101531.63
2023-10-07T11:39:29.972Z,101516.66
2023-10-07T11:42:03.210Z,101525.00
2023-10-07T11:44:33.392Z,101521.63
2023-10-07T11:47:08.637Z,101511.88
2023-10-07T11:49:59.264Z,101513.00
2023-10-07T11:52:31.086Z,101513.72
2023-10-07T11:55:03.116Z,101514.72
2023-10-07T11:57:39.372Z,101506.75
2023-10-07T12:00:24.768Z,101506.75
2023-10-07T12:02:54.482Z,101507.41
2023-10-07T12:05:22.770Z,101496.28
2023-10-07T12:07:51.192Z,101494.19
2023-10-07T12:10:23.588Z,101486.31
2023-10-07T12:12:56.516Z,101478.69
2023-10-07T12:15:26.808Z,101487.47
2023-10-07T12:17:55.639Z,101472.97
2023-10-07T12:20:25.753Z,101474.78
2023-10-07T12:22:55.009Z,101471.28
2023-10-07T12:25:25.195Z,101471.63
2023-10-07T12:27:54.680Z,101471.53
2023-10-07T12:30:28.137Z,101465.25
2023-10-07T12:33:03.818Z,101470.94
2023-10-07T12:35:36.540Z,101469.91
2023-10-07T12:38:05.441Z,101471.22
2023-10-07T12:40:33.789Z,101468.44
2023-10-07T12:43:03.084Z,101459.19
2023-10-07T12:45:32.466Z,101451.59
2023-10-07T12:48:05.236Z,101456.38
2023-10-07T12:50:35.177Z,101435.72
2023-10-07T12:53:06.129Z,101442.94
2023-10-07T12:55:38.655Z,101438.56
2023-10-07T12:58:17.363Z,101446.88
2023-10-07T13:00:46.066Z,101442.56
2023-10-07T13:03:14.806Z,101432.25
2023-10-07T13:05:47.091Z,101432.25
2023-10-07T13:08:19.246Z,101433.56
2023-10-07T13:10:47.882Z,101437.13
2023-10-07T13:13:16.782Z,101433.78
2023-10-07T13:15:47.358Z,101430.47
2023-10-07T13:18:16.710Z,101441.47
2023-10-07T13:20:46.083Z,101439.69
2023-10-07T13:23:17.848Z,101436.56
2023-10-07T13:25:47.669Z,101442.13
2023-10-07T13:28:19.024Z,101433.69
2023-10-07T13:30:47.810Z,101425.97
2023-10-07T13:33:17.337Z,101420.13
2023-10-07T13:35:47.238Z,101414.97
2023-10-07T13:38:17.271Z,101426.19
2023-10-07T13:40:46.294Z,101408.03
2023-10-07T13:43:24.818Z,101409.19
2023-10-07T13:45:53.873Z,101404.34
2023-10-07T13:48:26.205Z,101409.78
2023-10-07T13:51:01.779Z,101412.31
2023-10-07T13:53:51.464Z,101410.38
2023-10-07T13:56:44.974Z,101406.81
2023-10-07T13:59:13.915Z,101415.78
2023-10-07T14:01:44.086Z,101400.31
2023-10-07T14:04:17.020Z,101401.50
2023-10-07T14:06:49.648Z,101388.59
2023-10-07T14:09:24.165Z,101384.09
2023-10-07T14:11:53.590Z,101391.56
2023-10-07T14:14:22.661Z,101379.16
2023-10-07T14:16:57.478Z,101384.09
2023-10-07T14:19:29.798Z,101386.84
2023-10-07T14:22:04.009Z,101376.84
2023-10-07T14:24:40.917Z,101374.38
2023-10-07T14:27:16.847Z,101376.72
2023-10-07T14:29:49.895Z,101368.44
2023-10-07T14:32:20.162Z,101373.75
2023-10-07T14:34:49.595Z,101369.53
2023-10-07T14:37:25.595Z,101371.81
2023-10-07T14:39:58.478Z,101372.63
2023-10-07T14:42:27.167Z,101365.22
2023-10-07T14:44:57.188Z,101364.56
2023-10-07T14:47:26.320Z,101376.31
2023-10-07T14:49:56.397Z,101369.09
2023-10-07T14:52:25.292Z,101374.78
2023-10-07T14:54:56.204Z,101380.50
2023-10-07T14:57:32.775Z,101375.16
2023-10-07T15:00:12.291Z,101381.28
2023-10-07T15:02:41.679Z,101382.84
2023-10-07T15:05:11.728Z,101380.31
2023-10-07T15:07:43.375Z,101374.91
2023-10-07T15:10:15.126Z,101378.69
2023-10-07T15:12:48.784Z,101383.47
2023-10-07T15:15:17.260Z,101383.75
2023-10-07T15:17:49.171Z,101378.16
2023-10-07T15:20:17.819Z,101378.78
2023-10-07T15:22:46.404Z,101386.81
2023-10-07T15:25:14.668Z,101381.84
2023-10-07T15:27:43.682Z,101386.25
2023-10-07T15:30:13.523Z,101388.25
2023-10-07T15:32:45.846Z,101391.25
2023-10-07T15:35:14.388Z,101384.13
2023-10-07T15:37:47.011Z,101390.75
2023-10-07T15:40:16.363Z,101385.78
2023-10-07T15:42:47.199Z,101385.78
2023-10-07T15:45:15.728Z,101389.09
2023-10-07T15:47:44.187Z,101395.38
2023-10-07T15:50:12.658Z,101387.81
2023-10-07T15:52:41.183Z,101397.28
2023-10-07T15:55:11.513Z,101385.19
2023-10-07T15:57:39.937Z,101388.97
2023-10-07T16:00:13.076Z,101395.97
2023-10-07T16:02:41.716Z,101400.66
2023-10-07T16:05:12.227Z,101394.47
2023-10-07T16:07:40.574Z,101389.03
2023-10-07T16:10:14.256Z,101402.56
2023-10-07T16:12:44.140Z,101399.31
2023-10-07T16:15:16.073Z,101406.31
2023-10-07T16:17:44.460Z,101402.09
2023-10-07T16:20:13.133Z,101405.59
2023-10-07T16:22:41.898Z,101411.44
2023-10-07T16:25:11.405Z,101413.31
2023-10-07T16:27:39.891Z,101396.41
2023-10-07T16:30:08.890Z,101406.78
2023-10-07T16:32:37.708Z,101413.44
2023-10-07T16:35:07.481Z,101413.19
2023-10-07T16:37:35.913Z,101417.78
2023-10-07T16:40:05.526Z,101420.56
2023-10-07T16:42:33.856Z,101415.91
2023-10-07T16:47:36.024Z,101425.56
2023-10-07T16:50:04.963Z,101417.06
2023-10-07T16:52:33.474Z,101424.84
2023-10-07T16:55:08.404Z,101423.81
2023-10-07T16:57:37.445Z,101426.50
2023-10-07T17:00:07.000Z,101436.59
2023-10-07T17:02:36.176Z,101436.34
2023-10-07T17:05:05.117Z,101440.28
2023-10-07T17:07:33.581Z,101441.66
2023-10-07T17:10:02.412Z,101441.63
2023-10-07T17:12:30.850Z,101452.34
2023-10-07T17:14:59.376Z,101447.59
2023-10-07T17:17:27.984Z,101457.94
2023-10-07T17:19:56.442Z,101459.66
2023-10-07T17:22:24.987Z,101459.75
2023-10-07T17:24:53.746Z,101466.97
2023-10-07T17:27:22.661Z,101472.09
2023-10-07T17:29:51.807Z,101480.69
2023-10-07T17:32:21.008Z,101477.22
2023-10-07T17:34:49.815Z,101473.88
2023-10-07T17:37:18.185Z,101479.69
2023-10-07T17:39:46.904Z,101482.22
2023-10-07T17:42:15.570Z,101490.03
2023-10-07T17:44:43.863Z,101501.00
2023-10-07T17:47:13.621Z,101495.31
2023-10-07T17:49:42.262Z,101503.59
2023-10-07T17:52:10.758Z,101491.16
2023-10-07T17:54:39.335Z,101490.44
2023-10-07T17:57:08.276Z,101495.53
2023-10-07T17:59:36.921Z,101502.06
2023-10-07T18:02:05.398Z,101505.16
2023-10-07T18:04:35.861Z,101502.72
2023-10-07T18:07:05.057Z,101513.63
2023-10-07T18:09:33.699Z,101506.19
2023-10-07T18:12:02.083Z,101507.75
2023-10-07T18:14:33.879Z,101514.84
2023-10-07T18:17:02.475Z,101514.13
2023-10-07T18:19:33.362Z,101513.16
2023-10-07T18:22:02.094Z,101521.00
2023-10-07T18:24:31.499Z,101526.72
2023-10-07T18:27:03.417Z,101524.00
2023-10-07T18:29:33.031Z,101524.16
2023-10-07T18:32:01.716Z,101523.59
2023-10-07T18:34:30.390Z,101524.59
2023-10-07T18:36:59.092Z,101527.34
2023-10-07T18:39:27.776Z,101528.69
2023-10-07T18:41:56.250Z,101541.13
2023-10-07T18:44:25.153Z,101531.97
2023-10-07T18:46:53.724Z,101531.97
2023-10-07T18:49:22.163Z,101542.00
2023-10-07T18:51:51.328Z,101543.00
2023-10-07T18:54:19.688Z,101548.09
2023-10-07T18:56:48.417Z,101555.13
2023-10-07T18:59:17.710Z,101557.13
2023-10-07T19:01:46.514Z,101554.97
2023-10-07T19:04:14.968Z,101565.16
2023-10-07T19:06:43.424Z,101576.81
2023-10-07T19:09:13.946Z,101570.38
2023-10-07T19:11:43.014Z,101565.00
2023-10-07T19:14:11.558Z,101564.66
2023-10-07T19:16:40.273Z,101576.47
2023-10-07T19:19:12.037Z,101572.84
2023-10-07T19:21:41.066Z,101579.56
2023-10-07T19:24:09.558Z,101572.22
2023-10-07T19:26:38.110Z,101580.41
2023-10-07T19:29:10.774Z,101573.88
2023-10-07T19:31:39.203Z,101587.09
2023-10-07T19:34:07.853Z,101584.84
2023-10-07T19:36:36.513Z,101577.78
2023-10-07T19:39:05.533Z,101571.41
2023-10-07T19:41:34.352Z,101576.66
2023-10-07T19:44:03.113Z,101589.09
2023-10-07T19:46:32.074Z,101591.97
2023-10-07T19:49:00.631Z,101590.81
2023-10-07T19:51:28.940Z,101591.34
2023-10-07T19:53:57.424Z,101592.97
2023-10-07T19:56:25.931Z,101604.47
2023-10-07T19:58:56.026Z,101595.47
2023-10-07T20:01:24.609Z,101600.38
2023-10-07T20:03:57.033Z,101606.94
2023-10-07T20:06:27.353Z,101602.00
2023-10-07T20:08:56.757Z,101610.03
2023-10-07T20:11:26.500Z,101591.78
2023-10-07T20:13:55.311Z,101605.66
2023-10-07T20:16:24.283Z,101611.06
2023-10-07T20:18:53.772Z,101604.06
2023-10-07T20:21:24.241Z,101595.88
2023-10-07T20:23:52.738Z,101594.88
2023-10-07T20:26:21.975Z,101601.25
2023-10-07T20:28:50.645Z,101600.28
2023-10-07T20:31:19.973Z,101610.56
2023-10-07T20:33:48.485Z,101605.66
2023-10-07T20:36:17.170Z,101581.13
2023-10-07T20:38:46.512Z,101595.88
2023-10-07T20:41:15.286Z,101594.88
2023-10-07T20:43:45.142Z,101598.72
2023-10-07T20:46:13.539Z,101596.13
2023-10-07T20:48:42.487Z,101600.25
2023-10-07T20:51:15.880Z,101606.66
2023-10-07T20:53:49.053Z,101609.06
2023-10-07T20:56:24.239Z,101609.25
2023-10-07T20:58:52.665Z,101613.34
2023-10-07T21:01:22.754Z,101606.69
2023-10-07T21:03:53.209Z,101601.19
2023-10-07T21:06:22.847Z,101606.03
2023-10-07T21:08:53.075Z,101602.06
2023-10-07T21:11:25.204Z,101601.63
2023-10-07T21:13:59.313Z,101613.63
2023-10-07T21:16:29.238Z,101610.38
2023-10-07T21:19:00.284Z,101620.66
2023-10-07T21:21:29.216Z,101608.38
2023-10-07T21:23:58.012Z,101607.59
2023-10-07T21:26:26.671Z,101601.34
2023-10-07T21:28:56.720Z,101601.69
2023-10-07T21:31:31.882Z,101601.88
2023-10-07T21:34:00.382Z,101595.50
2023-10-07T21:36:29.749Z,101585.84
2023-10-07T21:38:58.117Z,101594.50
2023-10-07T21:41:27.324Z,101582.53
2023-10-07T21:43:55.538Z,101589.53
2023-10-07T21:46:24.036Z,101600.06
2023-10-07T21:48:52.448Z,101589.88
2023-10-07T21:51:21.313Z,101603.66
2023-10-07T21:53:50.540Z,101597.75
2023-10-07T21:56:19.034Z,101601.59
2023-10-07T21:58:47.345Z,101592.19
2023-10-07T22:01:19.105Z,101591.38
2023-10-07T22:03:49.722Z,101592.44
2023-10-07T22:06:19.536Z,101593.97
2023-10-07T22:08:48.602Z,101591.09
2023-10-07T22:11:17.293Z,101598.06
2023-10-07T22:13:45.734Z,101597.16
2023-10-07T22:16:13.701Z,101590.91
2023-10-07T22:18:42.578Z,101588.97
2023-10-07T22:21:12.672Z,101586.09
2023-10-07T22:23:40.830Z,101590.09
2023-10-07T22:26:13.342Z,101593.66
2023-10-07T22:28:41.442Z,101589.16
2023-10-07T22:31:09.619Z,101584.44
2023-10-07T22:33:42.980Z,101598.69
2023-10-07T22:36:19.520Z,101593.06
2023-10-07T22:38:55.045Z,101589.25
2023-10-07T22:41:39.391Z,101592.41
2023-10-07T22:44:23.472Z,101590.31
2023-10-07T22:46:51.876Z,101593.41
2023-10-07T22:49:28.039Z,101582.66
2023-10-07T22:51:56.696Z,101578.44
2023-10-07T22:54:33.913Z,101572.69
2023-10-07T22:57:09.068Z,101581.47
2023-10-07T22:59:39.892Z,101580.13
2023-10-07T23:02:13.771Z,101584.03
2023-10-07T23:04:48.846Z,101590.59
2023-10-07T23:07:26.460Z,101570.03
2023-10-07T23:10:00.487Z,101568.47
2023-10-07T23:12:40.347Z,101566.34
2023-10-07T23:15:23.990Z,101561.31
2023-10-07T23:17:53.349Z,101574.44
2023-10-07T23:20:21.463Z,101570.84
2023-10-07T23:22:49.397Z,101571.66
2023-10-07T23:25:22.978Z,101567.88
2023-10-07T23:27:51.339Z,101570.84
2023-10-07T23:30:29.415Z,101567.56
2023-10-07T23:33:00.587Z,101567.66
2023-10-07T23:35:33.411Z,101575.53
2023-10-07T23:38:20.054Z,101570.38
2023-10-07T23:40:53.533Z,101578.13
2023-10-07T23:43:22.670Z,101588.78
2023-10-07T23:45:52.849Z,101591.84
2023-10-07T23:48:21.141Z,101583.63
2023-10-07T23:50:57.750Z,101583.19
2023-10-07T23:53:27.656Z,101587.44
2023-10-07T23:56:10.337Z,101589.78
2023-10-07T23:58:44.766Z,101594.19
